Time;durP1;ratioP1;P1;durP2;ratioP2;P2;SDS_P1;SDS_P2;PMS_P1;PMS_P2;Temp;Humidity;BMP_temperature;BMP_pressure;BME280_temperature;BME280_humidity;BME280_pressure;Samples;Min_cycle;Max_cycle;Signal;HPM_P1;HPM_P2
2024/01/24 00:02:13;;;;;;;1.80;1.03;;;14.30;94.90;;;;;;5032973;28;20308;-91
2024/01/24 00:04:39;;;;;;;2.53;1.13;;;14.20;95.00;;;;;;5052049;28;20188;-92
2024/01/24 00:07:05;;;;;;;2.70;0.90;;;14.30;95.10;;;;;;5039791;28;20175;-91
2024/01/24 00:09:33;;;;;;;2.43;1.20;;;14.30;95.10;;;;;;5050764;28;20184;-93
2024/01/24 00:11:59;;;;;;;1.50;1.10;;;14.30;94.90;;;;;;5037230;28;20174;-92
2024/01/24 00:14:26;;;;;;;2.30;1.00;;;14.30;94.90;;;;;;5048750;28;20172;-92
2024/01/24 00:16:52;;;;;;;2.23;1.10;;;14.30;94.90;;;;;;5056996;28;20178;-92
2024/01/24 00:19:18;;;;;;;2.00;1.10;;;14.30;94.90;;;;;;5047422;28;20532;-91
2024/01/24 00:21:43;;;;;;;1.23;0.97;;;14.30;95.00;;;;;;5040223;28;20186;-91
2024/01/24 00:24:10;;;;;;;1.53;0.90;;;14.30;94.90;;;;;;5033414;28;20179;-91
2024/01/24 00:26:39;;;;;;;1.63;0.97;;;14.30;95.00;;;;;;5042058;28;20212;-91
2024/01/24 00:29:05;;;;;;;1.60;0.87;;;14.40;95.20;;;;;;5056814;28;20184;-92
2024/01/24 00:31:31;;;;;;;2.33;1.10;;;14.30;95.10;;;;;;5050874;28;20177;-91
2024/01/24 00:33:57;;;;;;;1.30;1.10;;;14.40;95.20;;;;;;5058447;28;20194;-92
2024/01/24 00:36:23;;;;;;;1.60;0.90;;;14.30;95.20;;;;;;5047745;28;20278;-91
2024/01/24 00:38:49;;;;;;;2.00;1.07;;;14.30;95.20;;;;;;5059983;28;20458;-91
2024/01/24 00:41:15;;;;;;;2.67;1.03;;;14.30;95.30;;;;;;5049356;28;20560;-92
2024/01/24 00:43:42;;;;;;;1.50;1.10;;;14.40;95.40;;;;;;5058589;28;20214;-92
2024/01/24 00:46:08;;;;;;;2.60;1.27;;;14.40;95.30;;;;;;5047646;28;20183;-91
2024/01/24 00:48:33;;;;;;;2.20;1.00;;;14.40;95.50;;;;;;5060064;28;20190;-91
2024/01/24 00:50:59;;;;;;;1.33;1.10;;;14.40;95.50;;;;;;5047907;28;20179;-92
2024/01/24 00:53:32;;;;;;;1.60;1.10;;;14.40;95.60;;;;;;5039340;28;20178;-91
2024/01/24 00:55:57;;;;;;;1.90;1.13;;;14.40;95.70;;;;;;5056134;28;20179;-92
2024/01/24 00:58:23;;;;;;;1.77;1.00;;;14.40;95.70;;;;;;5038398;28;20193;-92
2024/01/24 01:00:50;;;;;;;1.33;1.10;;;14.40;95.80;;;;;;5057996;28;20295;-92
2024/01/24 01:03:16;;;;;;;1.50;1.00;;;14.40;96.00;;;;;;5043125;28;20584;-93
2024/01/24 01:05:42;;;;;;;1.90;1.10;;;14.40;96.00;;;;;;5046346;28;20179;-92
2024/01/24 01:08:08;;;;;;;3.40;1.10;;;14.40;96.10;;;;;;5046344;28;20186;-92
2024/01/24 01:10:38;;;;;;;1.80;1.10;;;14.40;96.00;;;;;;4869836;28;20722;-92
2024/01/24 01:13:04;;;;;;;1.80;1.10;;;14.40;96.10;;;;;;5056814;28;20183;-92
2024/01/24 01:15:30;;;;;;;2.47;1.20;;;14.40;96.20;;;;;;5041601;28;20194;-93
2024/01/24 01:17:57;;;;;;;1.40;0.90;;;14.40;96.40;;;;;;5051361;28;20179;-91
2024/01/24 01:20:22;;;;;;;1.37;1.00;;;14.40;96.30;;;;;;5041696;28;20229;-93
2024/01/24 01:22:48;;;;;;;1.73;1.00;;;14.40;96.50;;;;;;5050532;28;20288;-93
2024/01/24 01:25:14;;;;;;;1.33;0.97;;;14.40;96.50;;;;;;5041581;28;20565;-92
2024/01/24 01:27:40;;;;;;;2.10;1.00;;;14.50;96.60;;;;;;5048121;28;20191;-92
2024/01/24 01:30:07;;;;;;;1.37;1.03;;;14.40;96.80;;;;;;5060691;28;20201;-92
2024/01/24 01:32:33;;;;;;;1.27;0.87;;;14.50;97.00;;;;;;5057802;28;20610;-92
2024/01/24 01:34:59;;;;;;;1.40;0.90;;;14.40;96.70;;;;;;5059687;28;20188;-92
2024/01/24 01:37:25;;;;;;;2.27;1.20;;;14.50;96.80;;;;;;5048142;28;20599;-92
2024/01/24 01:39:51;;;;;;;2.07;1.10;;;14.50;96.80;;;;;;5056843;23;20510;0
2024/01/24 01:42:17;;;;;;;1.33;0.93;;;14.50;96.80;;;;;;5033878;28;20210;-2
2024/01/24 01:44:46;;;;;;;1.93;1.10;;;14.50;96.70;;;;;;5053681;28;20454;-2
2024/01/24 01:47:13;;;;;;;1.30;0.90;;;14.50;96.80;;;;;;5035611;28;20175;-2
2024/01/24 01:49:40;;;;;;;1.87;1.10;;;14.50;96.80;;;;;;5052425;28;20171;-2
2024/01/24 01:52:07;;;;;;;1.50;0.93;;;14.50;96.90;;;;;;5035061;28;20254;-2
2024/01/24 01:54:33;;;;;;;1.63;0.97;;;14.50;96.80;;;;;;5035851;28;20463;-2
2024/01/24 01:57:01;;;;;;;1.30;0.83;;;14.50;96.80;;;;;;5054285;28;20188;-2
2024/01/24 01:59:27;;;;;;;0.90;0.70;;;14.50;96.90;;;;;;5054822;28;20187;-3
2024/01/24 02:01:55;;;;;;;2.37;1.00;;;14.50;97.10;;;;;;5052773;28;20187;-2
2024/01/24 02:04:22;;;;;;;1.00;0.90;;;14.50;97.00;;;;;;5054084;28;20176;-2
2024/01/24 02:06:48;;;;;;;1.07;0.90;;;14.50;97.00;;;;;;5054230;28;20202;-2
2024/01/24 02:09:14;;;;;;;1.17;0.80;;;14.50;97.10;;;;;;5036261;28;20463;-2
2024/01/24 02:11:40;;;;;;;1.63;1.07;;;14.60;97.00;;;;;;5055755;28;20178;-2
2024/01/24 02:14:06;;;;;;;1.17;0.90;;;14.60;97.10;;;;;;5055198;28;20173;-3
2024/01/24 02:16:32;;;;;;;1.53;1.00;;;14.60;97.10;;;;;;5038414;28;20178;-3
2024/01/24 02:18:58;;;;;;;1.27;0.80;;;14.60;97.20;;;;;;5038438;28;20195;-2
2024/01/24 02:21:24;;;;;;;1.47;0.97;;;14.60;97.10;;;;;;5052468;28;20237;-3
2024/01/24 02:23:50;;;;;;;1.20;0.80;;;14.60;97.20;;;;;;5053333;28;20384;-3
2024/01/24 02:26:17;;;;;;;1.13;0.93;;;14.60;97.20;;;;;;5055236;28;20175;-2
2024/01/24 02:28:42;;;;;;;1.80;1.00;;;14.60;97.10;;;;;;5037366;28;20176;-2
2024/01/24 02:31:08;;;;;;;1.30;0.80;;;14.60;97.20;;;;;;5036507;28;20275;-2
2024/01/24 02:33:34;;;;;;;1.73;1.00;;;14.60;97.20;;;;;;5053227;28;20184;-3
2024/01/24 02:36:00;;;;;;;1.77;0.93;;;14.60;97.30;;;;;;5051249;28;20177;-3
2024/01/24 02:38:25;;;;;;;1.80;0.90;;;14.60;97.40;;;;;;5035941;28;20473;-2
2024/01/24 02:40:51;;;;;;;1.20;0.90;;;14.60;97.40;;;;;;5036485;28;20199;-3
2024/01/24 02:43:17;;;;;;;1.37;0.97;;;14.60;97.40;;;;;;5034932;28;20273;-2
2024/01/24 02:45:43;;;;;;;1.03;0.90;;;14.60;97.50;;;;;;5053973;28;20226;-2
2024/01/24 02:48:10;;;;;;;1.30;0.90;;;14.60;97.50;;;;;;5037067;28;20187;-2
2024/01/24 02:50:35;;;;;;;1.10;0.90;;;14.60;97.60;;;;;;5054204;28;20175;-2
2024/01/24 02:53:01;;;;;;;1.77;1.10;;;14.60;97.60;;;;;;5054869;28;20457;-2
2024/01/24 02:55:29;;;;;;;2.03;0.80;;;14.60;97.70;;;;;;5055166;28;20204;-2
2024/01/24 02:58:13;;;;;;;1.10;0.83;;;14.60;97.90;;;;;;5074064;22;20348;-78
2024/01/24 03:00:44;;;;;;;1.07;0.90;;;14.60;97.80;;;;;;5073799;28;20634;-77
2024/01/24 03:04:00;;;;;;;1.17;0.80;;;14.60;97.80;;;;;;5077232;28;20245;-77
2024/01/24 03:06:26;;;;;;;1.83;0.97;;;14.60;97.90;;;;;;4994074;28;20204;-77
2024/01/24 03:08:56;;;;;;;1.73;0.90;;;14.60;97.90;;;;;;5049365;28;20179;-76
2024/01/24 03:11:31;;;;;;;1.00;0.80;;;14.60;98.00;;;;;;5058696;28;20193;-76
2024/01/24 03:14:42;;;;;;;1.60;1.00;;;14.60;97.90;;;;;;5059207;28;20769;-77
2024/01/24 03:17:35;;;;;;;1.00;0.70;;;14.60;98.00;;;;;;5059522;28;20509;-77
2024/01/24 03:20:20;;;;;;;1.87;0.80;;;14.70;98.10;;;;;;5059516;28;20464;-77
2024/01/24 03:22:52;;;;;;;0.73;0.73;;;14.70;98.30;;;;;;5053306;28;20218;-77
2024/01/24 03:26:13;;;;;;;0.70;0.70;;;14.70;98.20;;;;;;5059238;28;20190;-77
2024/01/24 03:29:28;;;;;;;1.10;0.80;;;14.70;98.30;;;;;;5063241;28;20645;-76
2024/01/24 03:32:19;;;;;;;0.83;0.60;;;14.70;98.30;;;;;;5067844;28;20186;-77
2024/01/24 03:35:36;;;;;;;0.80;0.80;;;14.70;98.40;;;;;;5060611;28;20204;-77
2024/01/24 03:41:26;;;;;;;1.03;0.77;;;14.70;98.50;;;;;;4995890;28;20482;-77
2024/01/24 03:44:04;;;;;;;1.07;0.70;;;14.70;98.60;;;;;;4984855;28;20219;-77
2024/01/24 03:47:06;;;;;;;0.73;0.60;;;14.70;98.70;;;;;;5001884;28;20545;-77
2024/01/24 03:50:06;;;;;;;0.70;0.70;;;14.70;98.70;;;;;;5059729;28;20190;-77
2024/01/24 03:52:54;;;;;;;1.37;0.77;;;14.70;98.80;;;;;;5061157;28;20175;-77
2024/01/24 03:55:25;;;;;;;0.60;0.60;;;14.70;99.00;;;;;;5060231;28;20259;-77
2024/01/24 03:58:01;;;;;;;0.73;0.70;;;14.70;98.90;;;;;;5055504;28;20245;-76
2024/01/24 04:00:45;;;;;;;0.80;0.70;;;14.70;98.90;;;;;;5055839;28;20412;-76
2024/01/24 04:06:55;;;;;;;1.23;0.70;;;14.80;99.10;;;;;;4994098;28;20224;-76
2024/01/24 04:09:49;;;;;;;0.50;0.50;;;14.70;99.00;;;;;;4978371;28;20178;-75
2024/01/24 04:12:36;;;;;;;1.30;0.77;;;14.70;99.30;;;;;;4972352;28;20196;-76
2024/01/24 04:18:24;;;;;;;0.93;0.70;;;14.70;99.20;;;;;;4956377;29;20180;-76
2024/01/24 04:21:05;;;;;;;0.60;0.60;;;14.80;99.20;;;;;;4941558;29;20569;-76
2024/01/24 04:24:12;;;;;;;0.50;0.50;;;14.80;99.40;;;;;;4941695;29;20226;-76
2024/01/24 04:30:03;;;;;;;0.60;0.60;;;14.80;99.60;;;;;;4902105;29;20352;-76
2024/01/24 04:36:00;;;;;;;0.87;0.50;;;14.80;99.80;;;;;;4902868;29;20270;-76
2024/01/24 04:39:18;;;;;;;0.93;0.60;;;14.80;99.80;;;;;;4919269;29;20201;-75
2024/01/24 04:42:08;;;;;;;3.10;0.70;;;14.80;99.80;;;;;;4918623;29;20177;-75
2024/01/24 04:44:36;;;;;;;0.77;0.70;;;14.80;99.90;;;;;;4918567;29;20240;-75
2024/01/24 04:47:08;;;;;;;3.37;0.67;;;14.80;99.90;;;;;;4956420;29;20183;-75
2024/01/24 04:53:18;;;;;;;1.60;0.80;;;14.80;99.90;;;;;;4956483;29;20294;-75
2024/01/24 04:55:50;;;;;;;0.60;0.60;;;14.80;99.90;;;;;;4937258;29;20190;-76
2024/01/24 04:58:18;;;;;;;0.70;0.50;;;14.80;99.90;;;;;;4956401;29;20215;-73
2024/01/24 05:01:05;;;;;;;0.97;0.60;;;14.80;99.90;;;;;;4956780;29;20200;-75
2024/01/24 05:06:59;;;;;;;1.40;0.60;;;14.80;99.90;;;;;;4974350;28;20269;-74
2024/01/24 05:09:30;;;;;;;0.70;0.57;;;14.80;99.90;;;;;;4969419;28;20468;-74
2024/01/24 05:12:33;;;;;;;3.13;0.50;;;14.80;99.90;;;;;;5007152;28;20481;-75
2024/01/24 05:24:53;;;;;;;0.70;0.70;;;14.80;99.90;;;;;;4954643;28;20222;-75
2024/01/24 05:27:31;;;;;;;0.50;0.50;;;14.80;99.90;;;;;;4954099;28;20197;-76
2024/01/24 05:30:27;;;;;;;3.57;0.67;;;14.80;99.90;;;;;;4958861;28;20185;-76
2024/01/24 05:32:56;;;;;;;2.43;0.70;;;14.80;99.90;;;;;;4992710;28;20174;-75
2024/01/24 05:35:37;;;;;;;1.40;0.57;;;14.80;99.90;;;;;;4993674;28;20178;-75
2024/01/24 05:38:21;;;;;;;0.87;0.70;;;14.80;99.90;;;;;;4993134;28;20186;-75
2024/01/24 05:41:24;;;;;;;1.37;0.70;;;14.80;99.90;;;;;;4991879;28;20471;-75
2024/01/24 05:43:56;;;;;;;1.33;0.80;;;14.80;99.90;;;;;;4971061;28;20307;-73
2024/01/24 05:46:36;;;;;;;0.70;0.50;;;14.80;99.90;;;;;;4989768;28;20168;-73
2024/01/24 05:49:21;;;;;;;1.23;0.63;;;14.80;99.90;;;;;;4993570;28;20188;-73
2024/01/24 05:52:07;;;;;;;3.27;0.90;;;14.80;99.90;;;;;;5024949;28;20187;-73
2024/01/24 05:54:52;;;;;;;1.90;0.80;;;14.80;99.90;;;;;;5038728;28;20168;-73
2024/01/24 05:57:46;;;;;;;1.27;0.70;;;14.90;99.90;;;;;;5054079;28;20198;-73
2024/01/24 06:00:39;;;;;;;2.20;0.93;;;14.80;99.90;;;;;;5054815;28;20188;-73
2024/01/24 06:03:05;;;;;;;2.73;0.83;;;14.80;99.90;;;;;;5038764;28;20188;-73
2024/01/24 06:05:34;;;;;;;2.70;0.80;;;14.80;99.90;;;;;;5053767;28;20228;-73
2024/01/24 06:08:05;;;;;;;1.70;0.80;;;14.80;99.90;;;;;;5033332;28;20172;-73
2024/01/24 06:10:40;;;;;;;0.77;0.70;;;14.80;99.90;;;;;;5032385;28;20198;-73
2024/01/24 06:13:05;;;;;;;1.33;0.90;;;14.80;99.90;;;;;;5016742;28;20194;-73
2024/01/24 06:16:01;;;;;;;1.17;0.77;;;14.80;99.90;;;;;;5031903;28;20569;-73
2024/01/24 06:18:29;;;;;;;1.50;0.80;;;14.80;99.90;;;;;;5046770;28;20215;-73
2024/01/24 06:21:10;;;;;;;3.00;0.93;;;14.80;99.90;;;;;;4985802;28;20551;-72
2024/01/24 06:23:38;;;;;;;3.20;0.87;;;14.80;99.90;;;;;;4970589;28;20315;-72
2024/01/24 06:26:07;;;;;;;1.67;0.90;;;14.80;99.90;;;;;;4981218;28;20224;-73
2024/01/24 06:28:39;;;;;;;2.30;0.93;;;14.80;99.90;;;;;;5014230;28;20173;-73
2024/01/24 06:31:12;;;;;;;2.53;1.20;;;14.80;99.90;;;;;;5013242;28;20187;-73
2024/01/24 06:33:41;;;;;;;3.00;1.13;;;14.80;99.90;;;;;;5004965;28;20185;-73
2024/01/24 06:36:50;;;;;;;1.73;0.93;;;14.80;99.90;;;;;;5006626;28;20181;-73
2024/01/24 06:39:09;;;;;;;3.53;1.30;;;14.80;99.90;;;;;;5005775;28;20282;-73
2024/01/24 06:41:42;;;;;;;4.90;0.90;;;14.80;99.90;;;;;;5004929;28;20215;-73
2024/01/24 06:44:14;;;;;;;2.53;1.00;;;14.80;99.90;;;;;;5002126;28;20299;-73
2024/01/24 06:46:47;;;;;;;4.13;1.10;;;14.80;99.90;;;;;;5003516;28;20593;-72
2024/01/24 06:49:27;;;;;;;3.07;1.00;;;14.80;99.90;;;;;;5004352;28;20196;-73
2024/01/24 06:51:56;;;;;;;3.27;1.00;;;14.80;99.90;;;;;;5032073;28;20516;-73
2024/01/24 06:54:35;;;;;;;2.07;0.97;;;14.80;99.90;;;;;;5047390;28;20269;-73
2024/01/24 06:57:14;;;;;;;2.73;1.30;;;14.80;99.90;;;;;;5048109;28;20406;-73
2024/01/24 06:59:58;;;;;;;3.20;1.30;;;14.80;99.90;;;;;;5048208;28;20507;-73
2024/01/24 07:02:26;;;;;;;5.10;1.43;;;14.80;99.90;;;;;;5047322;28;20198;-72
2024/01/24 07:04:55;;;;;;;2.53;1.10;;;14.80;99.90;;;;;;5048700;28;20262;-72
2024/01/24 07:07:30;;;;;;;1.50;0.93;;;14.80;99.90;;;;;;5048512;28;20498;-73
2024/01/24 07:12:46;;;;;;;3.57;1.30;;;14.80;99.90;;;;;;5046239;28;20236;-73
2024/01/24 07:15:36;;;;;;;2.53;1.20;;;14.80;99.90;;;;;;5028244;28;20184;-77
2024/01/24 07:18:13;;;;;;;3.53;0.90;;;14.80;99.90;;;;;;5037178;28;20218;-76
2024/01/24 07:21:13;;;;;;;3.70;1.27;;;14.80;99.90;;;;;;5034644;28;20257;-76
2024/01/24 07:23:45;;;;;;;3.63;1.43;;;14.80;99.90;;;;;;5028187;28;20211;-75
2024/01/24 07:26:50;;;;;;;5.53;1.50;;;14.80;99.90;;;;;;5028285;28;20394;-75
2024/01/24 07:29:34;;;;;;;3.13;1.10;;;14.80;99.90;;;;;;4991956;28;20200;-75
2024/01/24 07:32:03;;;;;;;5.13;1.47;;;14.80;99.90;;;;;;5026077;28;20440;-74
2024/01/24 07:35:06;;;;;;;3.00;1.37;;;14.90;99.90;;;;;;5027331;28;20281;-75
2024/01/24 07:37:43;;;;;;;6.43;1.43;;;14.80;99.90;;;;;;5003408;28;20181;-75
2024/01/24 07:40:12;;;;;;;5.97;1.53;;;14.80;99.90;;;;;;5005813;28;20290;-75
2024/01/24 07:42:47;;;;;;;5.63;1.33;;;14.80;99.90;;;;;;4989453;28;20217;-75
2024/01/24 07:45:36;;;;;;;4.67;1.40;;;14.80;99.90;;;;;;5003217;28;20193;-74
2024/01/24 07:48:04;;;;;;;5.37;1.33;;;14.80;99.90;;;;;;5006088;28;20446;-75
2024/01/24 07:50:31;;;;;;;5.37;1.50;;;14.80;99.90;;;;;;5006666;28;20172;-75
2024/01/24 07:53:06;;;;;;;5.63;1.57;;;14.80;99.90;;;;;;5006562;28;20185;-75
2024/01/24 07:55:37;;;;;;;4.00;1.40;;;14.80;99.90;;;;;;5005841;28;20184;-75
2024/01/24 07:58:24;;;;;;;6.23;1.47;;;14.80;99.90;;;;;;5005042;28;20196;-75
2024/01/24 08:00:56;;;;;;;5.10;1.60;;;14.80;99.90;;;;;;5005566;28;20453;-75
2024/01/24 08:03:22;;;;;;;4.53;1.47;;;14.80;99.90;;;;;;5004237;28;20583;-75
2024/01/24 08:06:05;;;;;;;3.57;1.57;;;14.80;99.90;;;;;;5003468;28;20178;-73
2024/01/24 08:08:32;;;;;;;4.87;1.77;;;14.80;99.90;;;;;;5019542;28;20172;-73
2024/01/24 08:11:01;;;;;;;5.13;1.70;;;14.80;99.90;;;;;;5023656;28;20449;-73
2024/01/24 08:13:33;;;;;;;7.03;1.77;;;14.80;99.90;;;;;;5025299;28;20178;-73
2024/01/24 08:16:09;;;;;;;2.70;1.20;;;14.80;99.90;;;;;;5029258;28;20180;-73
2024/01/24 08:18:50;;;;;;;3.27;1.50;;;14.80;99.90;;;;;;5029755;28;20167;-73
2024/01/24 08:21:28;;;;;;;4.03;1.67;;;14.80;99.90;;;;;;5030222;28;20183;-74
2024/01/24 08:24:08;;;;;;;4.63;1.50;;;14.80;99.90;;;;;;5032902;28;20364;-73
2024/01/24 08:26:54;;;;;;;2.43;1.33;;;14.80;99.90;;;;;;5033767;28;20195;-74
2024/01/24 08:29:27;;;;;;;4.10;1.70;;;14.80;99.80;;;;;;5038857;28;20197;-75
2024/01/24 08:31:52;;;;;;;3.37;1.60;;;14.90;99.60;;;;;;5036571;28;20283;-74
2024/01/24 08:34:37;;;;;;;4.30;1.70;;;14.90;99.50;;;;;;5032997;28;20175;-74
2024/01/24 08:37:12;;;;;;;4.20;1.70;;;14.90;99.40;;;;;;5029616;28;20409;-74
2024/01/24 08:39:44;;;;;;;5.17;1.60;;;15.00;99.30;;;;;;5032407;28;20178;-74
2024/01/24 08:42:21;;;;;;;4.27;1.53;;;15.00;99.10;;;;;;5031126;28;20177;-74
2024/01/24 08:45:06;;;;;;;4.23;1.70;;;15.10;98.90;;;;;;5031831;28;20274;-74
2024/01/24 08:47:36;;;;;;;3.70;1.60;;;15.10;98.70;;;;;;5050793;28;20248;-74
2024/01/24 08:50:18;;;;;;;4.13;1.60;;;15.30;98.60;;;;;;5058581;28;20722;-74
2024/01/24 08:52:44;;;;;;;3.37;1.53;;;15.50;98.00;;;;;;5059244;28;20466;-75
2024/01/24 08:56:18;;;;;;;4.83;1.80;;;15.60;97.40;;;;;;5053294;28;20167;-75
2024/01/24 08:58:49;;;;;;;6.60;2.23;;;15.70;96.90;;;;;;4989147;28;20177;-75
2024/01/24 09:01:18;;;;;;;4.23;2.13;;;15.90;96.50;;;;;;4990041;28;20177;-75
2024/01/24 09:04:01;;;;;;;5.93;2.10;;;16.00;96.10;;;;;;4990185;28;20259;-75
2024/01/24 09:06:32;;;;;;;6.67;1.57;;;15.90;96.10;;;;;;4989627;28;20251;-75
2024/01/24 09:09:06;;;;;;;6.23;2.13;;;15.80;96.30;;;;;;4991071;28;20268;-75
2024/01/24 09:11:50;;;;;;;5.53;1.90;;;15.60;96.60;;;;;;5049396;28;20172;-75
2024/01/24 09:14:25;;;;;;;5.97;1.97;;;15.40;97.00;;;;;;5049587;28;20563;-75
2024/01/24 09:16:54;;;;;;;5.37;1.90;;;15.30;97.30;;;;;;5049719;28;20175;-76
2024/01/24 09:19:26;;;;;;;5.97;1.97;;;15.20;97.70;;;;;;5049123;28;20172;-75
2024/01/24 09:22:10;;;;;;;6.07;1.80;;;15.10;98.10;;;;;;5049799;28;20266;-76
2024/01/24 09:24:39;;;;;;;6.30;2.10;;;15.00;98.10;;;;;;5048727;28;20245;-76
2024/01/24 09:27:17;;;;;;;7.60;2.20;;;15.00;98.20;;;;;;5050543;28;20195;-76
2024/01/24 09:29:46;;;;;;;4.83;2.20;;;14.90;98.20;;;;;;5051556;28;20261;-76
2024/01/24 09:32:14;;;;;;;6.40;1.90;;;14.90;98.30;;;;;;5050703;28;20451;-76
2024/01/24 09:34:40;;;;;;;5.73;1.90;;;14.90;98.30;;;;;;5051613;28;20564;-76
2024/01/24 09:37:17;;;;;;;6.53;1.93;;;14.90;98.40;;;;;;5057597;28;20593;-76
2024/01/24 09:40:00;;;;;;;6.50;2.27;;;14.90;98.30;;;;;;5057796;28;20172;-76
2024/01/24 09:42:26;;;;;;;5.83;1.90;;;14.90;98.30;;;;;;5057418;28;20198;-76
2024/01/24 09:45:02;;;;;;;5.20;2.00;;;14.80;98.50;;;;;;5057168;28;20174;-76
2024/01/24 09:47:42;;;;;;;4.30;1.97;;;14.90;98.30;;;;;;5054771;28;20186;-76
2024/01/24 09:50:09;;;;;;;4.67;2.00;;;14.90;98.30;;;;;;5049002;28;20446;-76
2024/01/24 09:52:44;;;;;;;5.30;1.73;;;14.90;98.20;;;;;;5051840;28;20183;-77
2024/01/24 09:55:44;;;;;;;6.17;2.00;;;14.80;98.20;;;;;;5050122;28;20178;-77
2024/01/24 09:58:22;;;;;;;5.60;2.27;;;14.90;98.20;;;;;;5050510;28;20172;-77
2024/01/24 10:01:16;;;;;;;6.20;1.90;;;14.90;98.10;;;;;;5049196;28;20180;-76
2024/01/24 10:04:21;;;;;;;4.93;2.30;;;14.90;98.10;;;;;;5058898;28;20659;-77
2024/01/24 10:06:59;;;;;;;6.10;2.17;;;14.90;98.10;;;;;;5047904;28;20773;-76
2024/01/24 10:10:00;;;;;;;4.93;1.97;;;14.90;98.00;;;;;;5048791;28;20266;-77
2024/01/24 10:13:01;;;;;;;6.23;2.00;;;14.90;98.00;;;;;;5048372;28;20440;-77
2024/01/24 10:15:35;;;;;;;6.67;2.20;;;14.90;98.00;;;;;;5049494;28;20334;-77
2024/01/24 10:18:06;;;;;;;5.13;2.03;;;14.90;98.00;;;;;;5046493;28;20206;-77
2024/01/24 10:20:53;;;;;;;6.07;2.20;;;14.80;97.90;;;;;;5048113;28;20172;-77
2024/01/24 10:23:49;;;;;;;5.20;2.20;;;14.90;98.00;;;;;;5066804;28;20696;-77
2024/01/24 10:26:52;;;;;;;5.50;1.77;;;14.80;97.90;;;;;;4986140;28;20677;-76
2024/01/24 10:29:56;;;;;;;10.90;2.30;;;14.80;97.90;;;;;;5002521;28;20201;-82
2024/01/24 10:36:21;;;;;;;8.97;2.57;;;15.10;99.90;;;;;;4984323;28;20248;-82
2024/01/24 10:39:10;;;;;;;8.83;2.50;;;15.40;99.90;;;;;;4948769;28;20188;-78
2024/01/24 10:41:51;;;;;;;13.23;3.30;;;15.60;99.90;;;;;;4947259;28;20237;-80
2024/01/24 10:44:29;;;;;;;8.17;2.50;;;15.70;99.70;;;;;;4951831;28;20210;-78
2024/01/24 10:47:08;;;;;;;12.63;2.90;;;15.80;99.60;;;;;;4948744;28;20569;-79
2024/01/24 10:49:52;;;;;;;7.07;2.30;;;15.90;99.90;;;;;;4948047;28;20285;-79
2024/01/24 10:52:42;;;;;;;6.00;2.20;;;16.00;99.70;;;;;;4948147;28;20178;-81
2024/01/24 10:55:13;;;;;;;5.73;2.30;;;16.00;99.70;;;;;;5012197;28;20431;-80
2024/01/24 10:57:58;;;;;;;7.20;2.70;;;16.10;99.40;;;;;;5048838;28;20419;-78
2024/01/24 11:00:31;;;;;;;8.20;2.60;;;16.10;99.10;;;;;;5055171;28;20209;-79
2024/01/24 11:03:08;;;;;;;10.33;2.63;;;16.20;99.00;;;;;;5055363;28;20587;-79
2024/01/24 11:06:06;;;;;;;10.50;2.87;;;16.10;98.30;;;;;;5053924;28;20210;-79
2024/01/24 11:09:12;;;;;;;7.37;2.87;;;16.00;98.00;;;;;;5054026;28;20182;-79
2024/01/24 11:11:54;;;;;;;7.60;2.60;;;15.90;97.90;;;;;;5065034;28;20164;-79
2024/01/24 11:15:08;;;;;;;7.60;2.50;;;15.80;97.90;;;;;;5046859;28;20368;-79
2024/01/24 11:17:41;;;;;;;7.57;2.90;;;15.70;97.80;;;;;;5047016;28;20502;-79
2024/01/24 11:20:20;;;;;;;6.83;2.70;;;15.70;97.70;;;;;;5052050;28;20614;-79
2024/01/24 11:22:55;;;;;;;5.73;2.50;;;15.70;97.70;;;;;;5055479;28;20460;-79
2024/01/24 11:26:10;;;;;;;6.73;2.60;;;15.60;97.60;;;;;;5055709;28;20447;-79
2024/01/24 11:28:55;;;;;;;9.87;2.83;;;15.60;97.60;;;;;;4954348;28;20244;-78
2024/01/24 11:31:44;;;;;;;7.67;2.67;;;15.60;97.50;;;;;;5054071;28;20200;-78
2024/01/24 11:34:14;;;;;;;9.57;2.73;;;15.60;97.50;;;;;;5053400;28;20191;-78
2024/01/24 11:36:54;;;;;;;;;;;;;;;;;;;;;
2024/01/24 11:39:31;;;;;;;6.87;2.80;;;15.50;97.50;;;;;;5072073;28;20167;-78
2024/01/24 11:42:43;;;;;;;7.73;2.70;;;15.40;97.40;;;;;;5053009;28;20186;-78
2024/01/24 11:45:31;;;;;;;8.77;2.70;;;15.40;97.20;;;;;;5053456;28;20227;-78
2024/01/24 11:48:13;;;;;;;8.23;2.97;;;15.40;97.20;;;;;;5052117;28;20183;-79
2024/01/24 11:50:47;;;;;;;8.63;2.83;;;15.40;97.20;;;;;;5058640;28;20685;-78
2024/01/24 11:53:16;;;;;;;9.23;2.80;;;15.30;97.20;;;;;;5056971;28;20479;-78
2024/01/24 11:55:55;;;;;;;7.67;2.53;;;15.30;97.10;;;;;;5047533;28;20372;-79
2024/01/24 11:58:31;;;;;;;7.10;2.37;;;15.30;97.10;;;;;;5050655;28;20327;-78
2024/01/24 12:01:50;;;;;;;7.93;2.30;;;15.30;97.00;;;;;;5050700;28;20442;-78
2024/01/24 12:04:53;;;;;;;8.30;2.50;;;15.30;97.00;;;;;;4949664;28;20252;-78
2024/01/24 12:07:32;;;;;;;7.67;2.60;;;15.30;97.00;;;;;;5001224;28;20175;-78
2024/01/24 12:10:05;;;;;;;7.20;2.57;;;15.30;97.00;;;;;;5049793;28;20196;-78
2024/01/24 12:15:59;;;;;;;6.67;2.53;;;15.30;96.90;;;;;;5069358;28;20182;-79
2024/01/24 12:18:53;;;;;;;8.47;2.70;;;15.30;96.90;;;;;;5045838;28;20571;-80
2024/01/24 12:22:14;;;;;;;7.37;2.90;;;15.30;96.90;;;;;;5050528;28;20536;-79
2024/01/24 12:24:40;;;;;;;8.43;2.80;;;15.20;96.90;;;;;;4951338;28;20247;-79
2024/01/24 12:27:13;;;;;;;8.43;3.10;;;15.20;96.80;;;;;;4952862;28;20228;-79
2024/01/24 12:29:42;;;;;;;7.73;2.77;;;15.20;96.90;;;;;;4965882;28;20617;-78
2024/01/24 12:32:24;;;;;;;6.90;2.60;;;15.20;96.90;;;;;;4946631;28;20624;-78
2024/01/24 12:35:14;;;;;;;7.67;2.50;;;15.20;96.90;;;;;;5026691;28;20186;-78
2024/01/24 12:37:51;;;;;;;7.10;2.53;;;15.10;96.80;;;;;;5046118;28;20240;-78
2024/01/24 12:40:30;;;;;;;7.60;2.60;;;15.10;96.70;;;;;;5047730;28;20175;-78
2024/01/24 12:43:42;;;;;;;9.33;2.70;;;15.10;96.70;;;;;;5047227;28;20199;-78
2024/01/24 12:46:12;;;;;;;10.03;2.97;;;15.10;96.70;;;;;;5049345;28;20552;-78
2024/01/24 12:48:38;;;;;;;8.03;2.60;;;15.10;96.70;;;;;;5047215;28;20331;-80
2024/01/24 12:51:25;;;;;;;5.67;2.40;;;15.10;96.70;;;;;;5048007;28;20171;-78
2024/01/24 12:53:54;;;;;;;8.00;2.37;;;15.10;96.60;;;;;;5047268;28;20285;-78
2024/01/24 12:56:42;;;;;;;6.43;2.57;;;15.10;96.60;;;;;;5046723;28;20322;-78
2024/01/24 12:59:13;;;;;;;6.33;2.30;;;15.10;96.50;;;;;;5045788;28;20575;-78
2024/01/24 13:02:05;;;;;;;7.47;2.53;;;15.10;96.50;;;;;;5045847;28;20171;-78
2024/01/24 13:04:33;;;;;;;7.00;2.70;;;15.20;96.50;;;;;;5012303;28;20224;-78
2024/01/24 13:06:59;;;;;;;7.17;2.80;;;15.10;96.40;;;;;;5004437;28;20617;-78
2024/01/24 13:09:28;;;;;;;7.87;2.53;;;15.10;96.40;;;;;;5000530;28;20185;-78
2024/01/24 13:12:24;;;;;;;7.00;2.47;;;15.10;96.40;;;;;;5004404;28;20321;-78
2024/01/24 13:15:26;;;;;;;7.07;2.33;;;15.10;96.40;;;;;;5006508;28;20180;-78
2024/01/24 13:18:09;;;;;;;5.23;2.33;;;15.10;96.40;;;;;;4997355;28;20186;-78
2024/01/24 13:20:35;;;;;;;7.23;2.43;;;15.10;96.40;;;;;;5007299;28;20453;-78
2024/01/24 13:23:01;;;;;;;6.80;2.37;;;15.10;96.40;;;;;;5005655;28;20479;-78
2024/01/24 13:25:56;;;;;;;6.43;2.43;;;15.10;96.30;;;;;;5005223;28;20484;-78
2024/01/24 13:28:24;;;;;;;5.90;2.60;;;15.10;96.30;;;;;;5003659;28;20177;-78
2024/01/24 13:31:17;;;;;;;6.97;2.60;;;15.10;96.30;;;;;;5016360;28;20289;-78
2024/01/24 13:34:06;;;;;;;6.53;2.33;;;15.10;96.20;;;;;;5007866;28;20349;-78
2024/01/24 13:36:32;;;;;;;7.33;2.60;;;15.10;96.30;;;;;;4996926;28;20177;-78
2024/01/24 13:39:23;;;;;;;7.50;2.40;;;15.10;96.30;;;;;;5027690;28;20276;-84
2024/01/24 13:42:14;;;;;;;;;;;15.10;98.50;;;;;;5027244;28;20399;-71
2024/01/24 13:44:51;;;;;;;;;;;15.50;99.30;;;;;;5027975;28;20254;-72
2024/01/24 13:47:40;;;;;;;;;;;15.40;98.50;;;;;;5027584;28;19932;-71
2024/01/24 13:50:14;;;;;;;;;;;15.30;97.60;;;;;;5007358;28;19912;-71
2024/01/24 13:52:40;;;;;;;;;;;15.20;97.80;;;;;;5030008;28;19927;-71
2024/01/24 13:55:10;;;;;;;;;;;15.10;97.60;;;;;;5046580;28;20182;-71
2024/01/24 14:00:56;;;;;;;;;;;15.00;97.70;;;;;;5005536;28;19905;-71
2024/01/24 14:03:24;;;;;;;;;;;14.90;97.60;;;;;;4987520;28;20019;-71
2024/01/24 14:05:53;;;;;;;;;;;14.90;97.60;;;;;;5009589;28;20204;-71
2024/01/24 14:08:18;;;;;;;;;;;14.90;97.60;;;;;;5025795;28;20210;-71
2024/01/24 14:10:44;;;;;;;;;;;14.80;97.50;;;;;;5040254;28;19909;-71
2024/01/24 14:13:31;;;;;;;;;;;14.90;97.60;;;;;;5021621;28;19964;-72
2024/01/24 14:15:56;;;;;;;;;;;14.80;97.60;;;;;;5041989;28;19905;-71
2024/01/24 14:18:45;;;;;;;;;;;14.80;97.60;;;;;;5027816;28;19977;-71
2024/01/24 14:21:14;;;;;;;;;;;14.80;97.60;;;;;;5043079;28;19905;-71
2024/01/24 14:23:42;;;;;;;7.17;2.43;;;14.70;97.60;;;;;;5024391;28;19913;-71
2024/01/24 14:26:12;;;;;;;9.93;2.30;;;14.70;97.60;;;;;;5013692;28;20220;-71
2024/01/24 14:29:00;;;;;;;6.57;2.20;;;14.70;97.60;;;;;;5026434;28;20308;-71
2024/01/24 14:35:44;;;;;;;7.10;2.43;;;14.70;97.60;;;;;;5045012;28;20204;-71
2024/01/24 14:38:15;;;;;;;7.97;2.33;;;14.70;97.60;;;;;;5023614;28;20558;-71